Time,TemperatureF,DewpointF,PressureIn,WindDirection,WindDirectionDegrees,WindSpeedMPH,WindSpeedGustMPH,Humidity,HourlyPrecipIn,Conditions,Clouds,dailyrainin,SoftwareType,DateUTC
2013-01-03 00:02:00,25.0,0.0,30.10,NNE,24,0.0,1.0,33,0.00,,,0.00,,2013-01-03 08:02:00,
2013-01-03 00:11:00,25.0,0.0,30.10,NNE,24,0.0,1.0,33,0.00,,,0.00,,2013-01-03 08:11:00,
2013-01-03 00:22:00,25.0,0.0,30.09,NNE,24,0.0,0.0,33,0.00,,,0.00,,2013-01-03 08:22:00,
2013-01-03 00:32:00,25.0,0.0,30.09,NNE,24,0.0,0.0,33,0.00,,,0.00,,2013-01-03 08:32:00,
2013-01-03 00:42:00,25.0,0.0,30.09,NNE,24,0.0,0.0,33,0.00,,,0.00,,2013-01-03 08:42:00,
2013-01-03 00:53:00,24.0,1.0,30.09,NNE,24,0.0,0.0,36,0.00,,,0.00,,2013-01-03 08:53:00,
2013-01-03 01:02:00,23.0,2.0,30.09,NNE,24,0.0,2.0,39,0.00,,,0.00,,2013-01-03 09:02:00,
2013-01-03 01:11:00,23.0,2.0,30.09,NNE,24,0.0,2.0,39,0.00,,,0.00,,2013-01-03 09:11:00,
2013-01-03 01:22:00,23.0,0.0,30.09,NNE,27,0.0,0.0,36,0.00,,,0.00,,2013-01-03 09:22:00,
2013-01-03 01:33:00,22.0,-1.0,30.10,NNE,21,0.0,0.0,36,0.00,,,0.00,,2013-01-03 09:33:00,
2013-01-03 01:42:00,22.0,-1.0,30.10,NNE,21,0.0,0.0,36,0.00,,,0.00,,2013-01-03 09:42:00,
2013-01-03 01:52:00,21.0,-1.0,30.09,North,4,0.0,0.0,38,0.00,,,0.00,,2013-01-03 09:52:00,
2013-01-03 02:01:00,21.0,-1.0,30.09,North,4,0.0,0.0,38,0.00,,,0.00,,2013-01-03 10:01:00,
2013-01-03 02:11:00,21.0,-1.0,30.09,North,4,0.0,0.0,38,0.00,,,0.00,,2013-01-03 10:11:00,
2013-01-03 02:22:00,21.0,1.0,30.09,North,4,0.0,0.0,41,0.00,,,0.00,,2013-01-03 10:22:00,
2013-01-03 02:32:00,20.0,1.0,30.09,North,4,0.0,0.0,43,0.00,,,0.00,,2013-01-03 10:32:00,
2013-01-03 02:42:00,20.0,1.0,30.09,North,4,0.0,0.0,43,0.00,,,0.00,,2013-01-03 10:42:00,
2013-01-03 02:52:00,20.0,1.0,30.09,North,6,0.0,0.0,43,0.00,,,0.00,,2013-01-03 10:52:00,
2013-01-03 03:01:00,21.0,2.0,30.09,NNE,18,0.0,0.0,42,0.00,,,0.00,,2013-01-03 11:01:00,
2013-01-03 03:11:00,21.0,2.0,30.09,NNE,18,0.0,0.0,42,0.00,,,0.00,,2013-01-03 11:11:00,
2013-01-03 03:22:00,21.0,1.0,30.09,NNE,18,0.0,0.0,41,0.00,,,0.00,,2013-01-03 11:22:00,
2013-01-03 03:32:00,20.0,1.0,30.09,NNE,18,0.0,0.0,42,0.00,,,0.00,,2013-01-03 11:32:00,
2013-01-03 03:42:00,20.0,1.0,30.09,NNE,18,0.0,0.0,42,0.00,,,0.00,,2013-01-03 11:42:00,
2013-01-03 03:53:00,21.0,1.0,30.08,NNE,18,0.0,0.0,41,0.00,,,0.00,,2013-01-03 11:53:00,
2013-01-03 04:02:00,20.0,-1.0,30.08,North,8,0.0,1.0,39,0.00,,,0.00,,2013-01-03 12:02:00,
2013-01-03 04:12:00,20.0,-1.0,30.08,North,8,0.0,1.0,39,0.00,,,0.00,,2013-01-03 12:12:00,
2013-01-03 04:22:00,21.0,0.0,30.07,North,6,0.0,0.0,39,0.00,,,0.00,,2013-01-03 12:22:00,
2013-01-03 04:32:00,21.0,2.0,30.07,North,10,0.0,0.0,42,0.00,,,0.00,,2013-01-03 12:32:00,
2013-01-03 04:42:00,21.0,2.0,30.07,North,10,0.0,0.0,42,0.00,,,0.00,,2013-01-03 12:42:00,
2013-01-03 04:53:00,21.0,3.0,30.09,North,11,0.0,0.0,44,0.00,,,0.00,,2013-01-03 12:53:00,
2013-01-03 05:02:00,21.0,3.0,30.09,North,11,0.0,0.0,44,0.00,,,0.00,,2013-01-03 13:02:00,
2013-01-03 05:12:00,21.0,3.0,30.09,North,11,0.0,0.0,44,0.00,,,0.00,,2013-01-03 13:12:00,
2013-01-03 05:22:00,21.0,3.0,30.09,North,11,0.0,0.0,45,0.00,,,0.00,,2013-01-03 13:22:00,
2013-01-03 05:32:00,22.0,4.0,30.09,NNE,18,0.0,0.0,45,0.00,,,0.00,,2013-01-03 13:32:00,
2013-01-03 05:42:00,22.0,4.0,30.09,NNE,18,0.0,0.0,45,0.00,,,0.00,,2013-01-03 13:42:00,
2013-01-03 05:52:00,21.0,4.0,30.09,NNE,20,0.0,0.0,46,0.00,,,0.00,,2013-01-03 13:52:00,
2013-01-03 06:02:00,21.0,3.0,30.09,North,11,0.0,0.0,45,0.00,,,0.00,,2013-01-03 14:02:00,
2013-01-03 06:12:00,21.0,3.0,30.09,North,11,0.0,0.0,45,0.00,,,0.00,,2013-01-03 14:12:00,
2013-01-03 06:22:00,21.0,2.0,30.10,North,11,0.0,0.0,43,0.00,,,0.00,,2013-01-03 14:22:00,
2013-01-03 06:32:00,19.0,2.0,30.10,North,11,0.0,0.0,47,0.00,,,0.00,,2013-01-03 14:32:00,
2013-01-03 06:42:00,19.0,2.0,30.10,North,11,0.0,0.0,47,0.00,,,0.00,,2013-01-03 14:42:00,
2013-01-03 06:53:00,19.0,2.0,30.11,North,11,0.0,0.0,47,0.00,,,0.00,,2013-01-03 14:53:00,
2013-01-03 07:02:00,19.0,2.0,30.11,North,11,0.0,0.0,47,0.00,,,0.00,,2013-01-03 15:02:00,
2013-01-03 07:12:00,19.0,2.0,30.11,North,11,0.0,0.0,47,0.00,,,0.00,,2013-01-03 15:12:00,
2013-01-03 07:22:00,18.0,1.0,30.11,North,11,0.0,1.0,47,0.00,,,0.00,,2013-01-03 15:22:00,
2013-01-03 07:32:00,18.0,1.0,30.11,North,11,0.0,0.0,47,0.00,,,0.00,,2013-01-03 15:32:00,
2013-01-03 07:42:00,18.0,1.0,30.11,North,11,0.0,0.0,47,0.00,,,0.00,,2013-01-03 15:42:00,
2013-01-03 07:53:00,19.0,1.0,30.12,North,11,0.0,0.0,45,0.00,,,0.00,,2013-01-03 15:53:00,
2013-01-03 08:02:00,21.0,2.0,30.12,NNE,13,0.0,0.0,42,0.00,,,0.00,,2013-01-03 16:02:00,
2013-01-03 08:11:00,21.0,2.0,30.12,NNE,13,0.0,0.0,42,0.00,,,0.00,,2013-01-03 16:11:00,
2013-01-03 08:22:00,22.0,2.0,30.13,NNE,16,0.0,0.0,42,0.00,,,0.00,,2013-01-03 16:22:00,
2013-01-03 08:32:00,27.0,3.0,30.13,NNE,20,0.0,0.0,35,0.00,,,0.00,,2013-01-03 16:32:00,
2013-01-03 08:42:00,27.0,3.0,30.13,NNE,20,0.0,0.0,35,0.00,,,0.00,,2013-01-03 16:42:00,
2013-01-03 08:52:00,28.0,2.0,30.13,NNE,20,0.0,0.0,32,0.00,,,0.00,,2013-01-03 16:52:00,
2013-01-03 09:02:00,31.0,2.0,30.13,NNE,30,0.0,1.0,28,0.00,,,0.00,,2013-01-03 17:02:00,
2013-01-03 09:12:00,31.0,2.0,30.13,NNE,30,0.0,1.0,28,0.00,,,0.00,,2013-01-03 17:12:00,
2013-01-03 09:22:00,32.0,1.0,30.14,NNE,24,0.0,4.0,26,0.00,,,0.00,,2013-01-03 17:22:00,
2013-01-03 09:32:00,34.0,-2.0,30.14,North,3,0.0,0.0,21,0.00,,,0.00,,2013-01-03 17:32:00,
2013-01-03 09:42:00,34.0,-2.0,30.14,North,3,0.0,0.0,21,0.00,,,0.00,,2013-01-03 17:42:00,
2013-01-03 09:52:00,36.0,-1.0,30.14,NE,37,0.0,5.0,20,0.00,,,0.00,,2013-01-03 17:52:00,
2013-01-03 10:03:00,37.0,-4.0,30.15,NNE,32,0.0,0.0,17,0.00,,,0.00,,2013-01-03 18:03:00,
2013-01-03 10:12:00,37.0,-4.0,30.15,NNE,32,0.0,0.0,17,0.00,,,0.00,,2013-01-03 18:12:00,
2013-01-03 10:22:00,38.0,-3.0,30.16,NNE,30,0.0,2.0,17,0.00,,,0.00,,2013-01-03 18:22:00,
2013-01-03 10:33:00,39.0,-3.0,30.16,North,11,1.0,1.0,16,0.00,,,0.00,,2013-01-03 18:33:00,
2013-01-03 10:42:00,39.0,-3.0,30.16,North,11,1.0,1.0,16,0.00,,,0.00,,2013-01-03 18:42:00,
2013-01-03 10:53:00,40.0,-4.0,30.15,ENE,59,1.0,0.0,15,0.00,,,0.00,,2013-01-03 18:53:00,
2013-01-03 11:03:00,42.0,-5.0,30.15,East,85,0.0,9.0,13,0.00,,,0.00,,2013-01-03 19:03:00,
2013-01-03 11:12:00,42.0,-5.0,30.15,East,85,0.0,9.0,13,0.00,,,0.00,,2013-01-03 19:12:00,
2013-01-03 11:55:00,44.0,-5.0,30.14,NE,47,0.0,1.0,12,0.00,,,0.00,,2013-01-03 19:55:00,
2013-01-03 12:02:00,44.0,-5.0,30.13,North,0,0.0,0.0,12,0.00,,,0.00,,2013-01-03 20:02:00,
2013-01-03 12:12:00,44.0,-5.0,30.13,North,0,0.0,0.0,12,0.00,,,0.00,,2013-01-03 20:12:00,
2013-01-03 12:22:00,45.0,-5.0,30.13,North,11,0.0,2.0,12,0.00,,,0.00,,2013-01-03 20:22:00,
2013-01-03 12:33:00,45.0,-3.0,30.12,NE,40,0.0,2.0,13,0.00,,,0.00,,2013-01-03 20:33:00,
2013-01-03 12:42:00,45.0,-3.0,30.12,NE,40,0.0,2.0,13,0.00,,,0.00,,2013-01-03 20:42:00,
2013-01-03 12:53:00,45.0,0.0,30.12,ENE,75,0.0,0.0,15,0.00,,,0.00,,2013-01-03 20:53:00,
2013-01-03 13:02:00,44.0,-2.0,30.12,NE,48,0.0,1.0,14,0.00,,,0.00,,2013-01-03 21:02:00,
2013-01-03 13:12:00,44.0,-2.0,30.12,NE,48,0.0,1.0,14,0.00,,,0.00,,2013-01-03 21:12:00,
2013-01-03 13:22:00,43.0,-3.0,30.12,East,89,0.0,5.0,14,0.00,,,0.00,,2013-01-03 21:22:00,
2013-01-03 13:33:00,43.0,-1.0,30.12,ENE,59,0.0,5.0,15,0.00,,,0.00,,2013-01-03 21:33:00,
2013-01-03 13:45:00,43.0,-1.0,30.12,ENE,59,0.0,5.0,15,0.00,,,0.00,,2013-01-03 21:45:00,
2013-01-03 13:52:00,42.0,-2.0,30.12,SSE,152,1.0,6.0,15,0.00,,,0.00,,2013-01-03 21:52:00,
2013-01-03 14:02:00,42.0,-2.0,30.12,ESE,106,1.0,1.0,15,0.00,,,0.00,,2013-01-03 22:02:00,
2013-01-03 14:12:00,42.0,-2.0,30.12,ESE,106,1.0,1.0,15,0.00,,,0.00,,2013-01-03 22:12:00,
2013-01-03 14:22:00,42.0,-2.0,30.13,NE,47,1.0,5.0,15,0.00,,,0.00,,2013-01-03 22:22:00,
2013-01-03 14:32:00,42.0,-2.0,30.13,East,88,0.0,4.0,15,0.00,,,0.00,,2013-01-03 22:32:00,
2013-01-03 14:42:00,42.0,-2.0,30.13,East,88,0.0,4.0,15,0.00,,,0.00,,2013-01-03 22:42:00,
2013-01-03 14:52:00,42.0,-4.0,30.13,ENE,62,0.0,4.0,14,0.00,,,0.00,,2013-01-03 22:52:00,
2013-01-03 15:02:00,43.0,-1.0,30.13,North,4,1.0,0.0,15,0.00,,,0.00,,2013-01-03 23:02:00,
2013-01-03 15:12:00,43.0,-1.0,30.13,North,4,1.0,0.0,15,0.00,,,0.00,,2013-01-03 23:12:00,
2013-01-03 15:22:00,43.0,-8.0,30.13,ENE,71,0.0,1.0,11,0.00,,,0.00,,2013-01-03 23:22:00,
2013-01-03 15:32:00,43.0,-8.0,30.14,NE,40,0.0,1.0,11,0.00,,,0.00,,2013-01-03 23:32:00,
2013-01-03 15:42:00,43.0,-8.0,30.14,NE,40,0.0,1.0,11,0.00,,,0.00,,2013-01-03 23:42:00,
2013-01-03 15:52:00,42.0,-13.0,30.14,East,86,0.0,0.0,9,0.00,,,0.00,,2013-01-03 23:52:00,
2013-01-03 16:02:00,42.0,-11.0,30.13,NE,34,0.0,0.0,10,0.00,,,0.00,,2013-01-04 00:02:00,
2013-01-03 16:12:00,42.0,-11.0,30.13,NE,34,0.0,0.0,10,0.00,,,0.00,,2013-01-04 00:12:00,
2013-01-03 16:22:00,41.0,-11.0,30.14,NNE,32,0.0,1.0,10,0.00,,,0.00,,2013-01-04 00:22:00,
2013-01-03 16:32:00,40.0,-8.0,30.14,NNE,25,0.0,0.0,12,0.00,,,0.00,,2013-01-04 00:32:00,
2013-01-03 16:42:00,40.0,-8.0,30.14,NNE,25,0.0,0.0,12,0.00,,,0.00,,2013-01-04 00:42:00,
2013-01-03 16:52:00,38.0,-12.0,30.14,NNE,25,0.0,0.0,11,0.00,,,0.00,,2013-01-04 00:52:00,
2013-01-03 17:02:00,36.0,-13.0,30.14,NNE,25,0.0,0.0,11,0.00,,,0.00,,2013-01-04 01:02:00,
2013-01-03 17:22:00,35.0,-16.0,30.14,NNE,25,0.0,0.0,10,0.00,,,0.00,,2013-01-04 01:22:00,
2013-01-03 17:32:00,32.0,-15.0,30.14,NNE,25,0.0,0.0,12,0.00,,,0.00,,2013-01-04 01:32:00,
2013-01-03 17:42:00,32.0,-15.0,30.14,NNE,25,0.0,0.0,12,0.00,,,0.00,,2013-01-04 01:42:00,
2013-01-03 17:52:00,32.0,-15.0,30.14,NNE,25,0.0,0.0,12,0.00,,,0.00,,2013-01-04 01:52:00,
2013-01-03 18:02:00,29.0,-10.0,30.14,NNE,24,0.0,0.0,17,0.00,,,0.00,,2013-01-04 02:02:00,
2013-01-03 18:22:00,29.0,-10.0,30.14,NNE,25,0.0,0.0,17,0.00,,,0.00,,2013-01-04 02:22:00,
2013-01-03 18:32:00,27.0,-7.0,30.14,NNE,25,0.0,0.0,22,0.00,,,0.00,,2013-01-04 02:32:00,
2013-01-03 18:42:00,27.0,-7.0,30.14,NNE,25,0.0,0.0,22,0.00,,,0.00,,2013-01-04 02:42:00,
2013-01-03 18:52:00,27.0,-8.0,30.14,NNE,25,0.0,0.0,21,0.00,,,0.00,,2013-01-04 02:52:00,
2013-01-03 19:02:00,26.0,-6.0,30.14,NNE,25,0.0,0.0,24,0.00,,,0.00,,2013-01-04 03:02:00,
2013-01-03 19:11:00,26.0,-6.0,30.14,NNE,25,0.0,0.0,24,0.00,,,0.00,,2013-01-04 03:11:00,
2013-01-03 19:22:00,26.0,-9.0,30.14,NNE,25,0.0,0.0,21,0.00,,,0.00,,2013-01-04 03:22:00,
2013-01-03 19:32:00,26.0,-11.0,30.15,NNE,25,0.0,0.0,19,0.00,,,0.00,,2013-01-04 03:32:00,
2013-01-03 19:52:00,25.0,-4.0,30.15,NNE,25,0.0,0.0,27,0.00,,,0.00,,2013-01-04 03:52:00,
2013-01-03 20:02:00,24.0,-5.0,30.15,NNE,25,0.0,0.0,27,0.00,,,0.00,,2013-01-04 04:02:00,
2013-01-03 20:11:00,24.0,-5.0,30.15,NNE,25,0.0,0.0,27,0.00,,,0.00,,2013-01-04 04:11:00,
2013-01-03 20:22:00,24.0,-5.0,30.16,NNE,25,0.0,0.0,27,0.00,,,0.00,,2013-01-04 04:22:00,
2013-01-03 20:32:00,23.0,-6.0,30.16,NNE,25,0.0,0.0,27,0.00,,,0.00,,2013-01-04 04:32:00,
2013-01-03 20:42:00,23.0,-6.0,30.16,NNE,25,0.0,0.0,27,0.00,,,0.00,,2013-01-04 04:42:00,
2013-01-03 20:52:00,23.0,-7.0,30.16,NNE,25,0.0,0.0,26,0.00,,,0.00,,2013-01-04 04:52:00,
2013-01-03 21:03:00,22.0,-6.0,30.16,NNE,25,0.0,0.0,28,0.00,,,0.00,,2013-01-04 05:03:00,
2013-01-03 21:12:00,22.0,-6.0,30.16,NNE,25,0.0,0.0,28,0.00,,,0.00,,2013-01-04 05:12:00,
2013-01-03 21:22:00,20.0,1.0,30.16,NNE,25,0.0,0.0,42,0.00,,,0.00,,2013-01-04 05:22:00,
2013-01-03 21:33:00,18.0,1.0,30.16,NNE,25,0.0,0.0,46,0.00,,,0.00,,2013-01-04 05:33:00,
2013-01-03 21:42:00,18.0,1.0,30.16,NNE,25,0.0,0.0,46,0.00,,,0.00,,2013-01-04 05:42:00,
2013-01-03 21:52:00,18.0,0.0,30.16,NNE,25,0.0,0.0,45,0.00,,,0.00,,2013-01-04 05:52:00,
2013-01-03 22:02:00,18.0,2.0,30.16,NNE,25,0.0,0.0,48,0.00,,,0.00,,2013-01-04 06:02:00,
2013-01-03 22:11:00,18.0,2.0,30.16,NNE,25,0.0,0.0,48,0.00,,,0.00,,2013-01-04 06:11:00,
2013-01-03 22:22:00,18.0,2.0,30.16,NNE,25,0.0,0.0,49,0.00,,,0.00,,2013-01-04 06:22:00,
2013-01-03 22:32:00,18.0,0.0,30.16,NNE,25,0.0,0.0,45,0.00,,,0.00,,2013-01-04 06:32:00,
2013-01-03 22:42:00,18.0,0.0,30.16,NNE,25,0.0,0.0,45,0.00,,,0.00,,2013-01-04 06:42:00,
2013-01-03 22:52:00,17.0,0.0,30.16,NNE,25,0.0,0.0,47,0.00,,,0.00,,2013-01-04 06:52:00,
2013-01-03 23:02:00,17.0,0.0,30.16,NNE,25,0.0,0.0,46,0.00,,,0.00,,2013-01-04 07:02:00,
2013-01-03 23:11:00,17.0,0.0,30.16,NNE,25,0.0,0.0,46,0.00,,,0.00,,2013-01-04 07:11:00,
2013-01-03 23:22:00,17.0,0.0,30.16,NNE,25,0.0,0.0,46,0.00,,,0.00,,2013-01-04 07:22:00,
2013-01-03 23:32:00,16.0,-1.0,30.16,NNE,25,0.0,0.0,46,0.00,,,0.00,,2013-01-04 07:32:00,
2013-01-03 23:42:00,16.0,-1.0,30.16,NNE,25,0.0,0.0,46,0.00,,,0.00,,2013-01-04 07:42:00,
2013-01-03 23:52:00,16.0,-1.0,30.16,NNE,25,0.0,0.0,46,0.00,,,0.00,,2013-01-04 07:52:00,